sensor_id;sensor_type;location;lat;lon;timestamp;temperature;humidity
18337;DHT22;9294;51.106;7.028;2023-01-13T00:00:32;19.40;99.90
18337;DHT22;9294;51.106;7.028;2023-01-13T00:02:59;19.40;99.90
18337;DHT22;9294;51.106;7.028;2023-01-13T00:05:26;19.40;99.90
18337;DHT22;9294;51.106;7.028;2023-01-13T00:07:54;19.40;99.90
18337;DHT22;9294;51.106;7.028;2023-01-13T00:10:20;19.40;99.90
18337;DHT22;9294;51.106;7.028;2023-01-13T00:12:47;19.40;99.90
18337;DHT22;9294;51.106;7.028;2023-01-13T00:15:14;19.40;99.90
18337;DHT22;9294;51.106;7.028;2023-01-13T00:17:41;19.40;99.90
18337;DHT22;9294;51.106;7.028;2023-01-13T00:20:09;19.40;99.90
18337;DHT22;9294;51.106;7.028;2023-01-13T00:22:36;19.40;99.90
18337;DHT22;9294;51.106;7.028;2023-01-13T00:25:05;19.40;99.90
18337;DHT22;9294;51.106;7.028;2023-01-13T00:27:32;19.40;99.90
18337;DHT22;9294;51.106;7.028;2023-01-13T00:29:59;19.40;99.90
18337;DHT22;9294;51.106;7.028;2023-01-13T00:32:26;19.40;99.90
18337;DHT22;9294;51.106;7.028;2023-01-13T00:34:52;19.40;99.90
18337;DHT22;9294;51.106;7.028;2023-01-13T00:37:19;19.40;99.90
18337;DHT22;9294;51.106;7.028;2023-01-13T00:39:46;19.40;99.90
18337;DHT22;9294;51.106;7.028;2023-01-13T00:42:14;19.40;99.90
18337;DHT22;9294;51.106;7.028;2023-01-13T00:44:59;19.30;99.90
18337;DHT22;9294;51.106;7.028;2023-01-13T00:47:25;19.40;99.90
18337;DHT22;9294;51.106;7.028;2023-01-13T00:49:52;19.30;99.90
18337;DHT22;9294;51.106;7.028;2023-01-13T00:52:19;19.30;99.90
18337;DHT22;9294;51.106;7.028;2023-01-13T00:54:45;19.30;99.90
18337;DHT22;9294;51.106;7.028;2023-01-13T00:57:14;19.30;99.90
18337;DHT22;9294;51.106;7.028;2023-01-13T00:59:40;19.30;99.90
18337;DHT22;9294;51.106;7.028;2023-01-13T01:02:07;19.30;99.90
18337;DHT22;9294;51.106;7.028;2023-01-13T01:04:34;19.30;99.90
18337;DHT22;9294;51.106;7.028;2023-01-13T01:07:01;19.30;99.90
18337;DHT22;9294;51.106;7.028;2023-01-13T01:09:27;19.30;99.90
18337;DHT22;9294;51.106;7.028;2023-01-13T01:11:58;19.30;99.90
18337;DHT22;9294;51.106;7.028;2023-01-13T01:14:26;19.40;99.90
18337;DHT22;9294;51.106;7.028;2023-01-13T01:16:53;19.30;99.90
18337;DHT22;9294;51.106;7.028;2023-01-13T01:19:20;19.30;99.90
18337;DHT22;9294;51.106;7.028;2023-01-13T01:21:46;19.30;99.90
18337;DHT22;9294;51.106;7.028;2023-01-13T01:24:13;19.30;99.90
18337;DHT22;9294;51.106;7.028;2023-01-13T01:26:41;19.30;99.90
18337;DHT22;9294;51.106;7.028;2023-01-13T01:29:10;19.30;99.90
18337;DHT22;9294;51.106;7.028;2023-01-13T01:31:38;19.30;99.90
18337;DHT22;9294;51.106;7.028;2023-01-13T01:34:05;19.30;99.90
18337;DHT22;9294;51.106;7.028;2023-01-13T01:36:32;19.30;99.90
18337;DHT22;9294;51.106;7.028;2023-01-13T01:38:59;19.20;99.90
18337;DHT22;9294;51.106;7.028;2023-01-13T01:41:29;19.20;99.90
18337;DHT22;9294;51.106;7.028;2023-01-13T01:43:59;19.30;99.90
18337;DHT22;9294;51.106;7.028;2023-01-13T01:46:28;19.30;99.90
18337;DHT22;9294;51.106;7.028;2023-01-13T01:49:01;19.20;99.90
18337;DHT22;9294;51.106;7.028;2023-01-13T01:51:31;19.20;99.90
18337;DHT22;9294;51.106;7.028;2023-01-13T01:54:01;19.20;99.90
18337;DHT22;9294;51.106;7.028;2023-01-13T01:56:30;19.20;99.90
18337;DHT22;9294;51.106;7.028;2023-01-13T01:58:58;19.20;99.90
18337;DHT22;9294;51.106;7.028;2023-01-13T02:01:24;19.20;99.90
18337;DHT22;9294;51.106;7.028;2023-01-13T02:03:56;19.20;99.90
18337;DHT22;9294;51.106;7.028;2023-01-13T02:06:25;19.20;99.90
18337;DHT22;9294;51.106;7.028;2023-01-13T02:08:53;19.20;99.90
18337;DHT22;9294;51.106;7.028;2023-01-13T02:11:31;19.20;99.90
18337;DHT22;9294;51.106;7.028;2023-01-13T02:14:16;19.20;99.90
18337;DHT22;9294;51.106;7.028;2023-01-13T02:16:50;19.20;99.90
18337;DHT22;9294;51.106;7.028;2023-01-13T02:19:51;19.20;99.90
18337;DHT22;9294;51.106;7.028;2023-01-13T02:22:38;19.20;99.90
18337;DHT22;9294;51.106;7.028;2023-01-13T02:25:24;19.20;99.90
18337;DHT22;9294;51.106;7.028;2023-01-13T02:31:02;19.20;99.90
18337;DHT22;9294;51.106;7.028;2023-01-13T02:33:59;19.10;99.90
18337;DHT22;9294;51.106;7.028;2023-01-13T02:36:31;19.10;99.90
18337;DHT22;9294;51.106;7.028;2023-01-13T02:39:06;19.10;99.90
18337;DHT22;9294;51.106;7.028;2023-01-13T02:41:38;19.10;99.90
18337;DHT22;9294;51.106;7.028;2023-01-13T02:44:25;19.10;99.90
18337;DHT22;9294;51.106;7.028;2023-01-13T02:46:57;19.10;99.90
18337;DHT22;9294;51.106;7.028;2023-01-13T02:49:32;19.10;99.90
18337;DHT22;9294;51.106;7.028;2023-01-13T02:52:05;19.10;99.90
18337;DHT22;9294;51.106;7.028;2023-01-13T02:54:34;19.20;99.90
18337;DHT22;9294;51.106;7.028;2023-01-13T02:57:04;19.10;99.90
18337;DHT22;9294;51.106;7.028;2023-01-13T02:59:33;19.10;99.90
18337;DHT22;9294;51.106;7.028;2023-01-13T03:02:03;19.10;99.90
18337;DHT22;9294;51.106;7.028;2023-01-13T03:04:46;19.10;99.90
18337;DHT22;9294;51.106;7.028;2023-01-13T03:07:35;19.10;99.90
18337;DHT22;9294;51.106;7.028;2023-01-13T03:10:10;19.10;99.90
18337;DHT22;9294;51.106;7.028;2023-01-13T03:12:43;19.10;99.90
18337;DHT22;9294;51.106;7.028;2023-01-13T03:15:16;19.10;99.90
18337;DHT22;9294;51.106;7.028;2023-01-13T03:17:54;19.00;99.90
18337;DHT22;9294;51.106;7.028;2023-01-13T03:20:26;19.00;99.90
18337;DHT22;9294;51.106;7.028;2023-01-13T03:22:58;19.00;99.90
18337;DHT22;9294;51.106;7.028;2023-01-13T03:25:28;19.00;99.90
18337;DHT22;9294;51.106;7.028;2023-01-13T03:28:01;19.10;99.90
18337;DHT22;9294;51.106;7.028;2023-01-13T03:30:35;19.00;99.90
18337;DHT22;9294;51.106;7.028;2023-01-13T03:33:08;19.00;99.90
18337;DHT22;9294;51.106;7.028;2023-01-13T03:35:39;19.00;99.90
18337;DHT22;9294;51.106;7.028;2023-01-13T03:38:10;19.00;99.90
18337;DHT22;9294;51.106;7.028;2023-01-13T03:40:43;19.00;99.90
18337;DHT22;9294;51.106;7.028;2023-01-13T03:43:13;19.00;99.90
18337;DHT22;9294;51.106;7.028;2023-01-13T03:46:05;19.00;99.90
18337;DHT22;9294;51.106;7.028;2023-01-13T03:48:36;19.00;99.90
18337;DHT22;9294;51.106;7.028;2023-01-13T03:51:06;19.00;99.90
18337;DHT22;9294;51.106;7.028;2023-01-13T03:53:38;19.00;99.90
18337;DHT22;9294;51.106;7.028;2023-01-13T03:56:10;19.00;99.90
18337;DHT22;9294;51.106;7.028;2023-01-13T03:58:40;19.00;99.90
18337;DHT22;9294;51.106;7.028;2023-01-13T04:01:12;19.00;99.90
18337;DHT22;9294;51.106;7.028;2023-01-13T04:03:48;19.00;99.90
18337;DHT22;9294;51.106;7.028;2023-01-13T04:06:22;19.00;99.90
18337;DHT22;9294;51.106;7.028;2023-01-13T04:08:56;19.00;99.90
18337;DHT22;9294;51.106;7.028;2023-01-13T04:11:29;19.00;99.90
18337;DHT22;9294;51.106;7.028;2023-01-13T04:13:59;19.00;99.90
18337;DHT22;9294;51.106;7.028;2023-01-13T04:16:27;18.90;99.90
18337;DHT22;9294;51.106;7.028;2023-01-13T04:18:55;18.90;99.90
18337;DHT22;9294;51.106;7.028;2023-01-13T04:21:22;18.90;99.90
18337;DHT22;9294;51.106;7.028;2023-01-13T04:23:48;18.90;99.90
18337;DHT22;9294;51.106;7.028;2023-01-13T04:26:16;18.90;99.90
18337;DHT22;9294;51.106;7.028;2023-01-13T04:28:44;18.90;99.90
18337;DHT22;9294;51.106;7.028;2023-01-13T04:31:10;18.90;99.90
18337;DHT22;9294;51.106;7.028;2023-01-13T04:33:37;18.90;99.90
18337;DHT22;9294;51.106;7.028;2023-01-13T04:36:06;18.90;99.90
18337;DHT22;9294;51.106;7.028;2023-01-13T04:38:33;18.90;99.90
18337;DHT22;9294;51.106;7.028;2023-01-13T04:40:59;18.90;99.90
18337;DHT22;9294;51.106;7.028;2023-01-13T04:43:26;18.80;99.90
18337;DHT22;9294;51.106;7.028;2023-01-13T04:45:53;18.90;99.90
18337;DHT22;9294;51.106;7.028;2023-01-13T04:48:20;18.80;99.90
18337;DHT22;9294;51.106;7.028;2023-01-13T04:50:46;18.90;99.90
18337;DHT22;9294;51.106;7.028;2023-01-13T04:53:14;18.90;99.90
18337;DHT22;9294;51.106;7.028;2023-01-13T04:55:41;19.00;99.90
18337;DHT22;9294;51.106;7.028;2023-01-13T04:58:09;19.00;99.90
18337;DHT22;9294;51.106;7.028;2023-01-13T05:00:37;19.00;99.90
18337;DHT22;9294;51.106;7.028;2023-01-13T05:03:04;19.10;99.90
18337;DHT22;9294;51.106;7.028;2023-01-13T05:05:31;19.10;99.90
18337;DHT22;9294;51.106;7.028;2023-01-13T05:07:57;19.20;99.90
18337;DHT22;9294;51.106;7.028;2023-01-13T05:10:26;19.20;99.90
18337;DHT22;9294;51.106;7.028;2023-01-13T05:12:52;19.30;99.90
18337;DHT22;9294;51.106;7.028;2023-01-13T05:15:38;19.30;99.90
18337;DHT22;9294;51.106;7.028;2023-01-13T05:18:23;19.30;99.90
18337;DHT22;9294;51.106;7.028;2023-01-13T05:20:50;19.30;99.90
18337;DHT22;9294;51.106;7.028;2023-01-13T05:23:16;19.30;99.90
18337;DHT22;9294;51.106;7.028;2023-01-13T05:26:02;19.30;99.90
18337;DHT22;9294;51.106;7.028;2023-01-13T05:28:33;19.40;99.90
18337;DHT22;9294;51.106;7.028;2023-01-13T05:31:00;19.30;99.90
18337;DHT22;9294;51.106;7.028;2023-01-13T05:33:27;19.40;99.90
18337;DHT22;9294;51.106;7.028;2023-01-13T05:35:54;19.40;99.90
18337;DHT22;9294;51.106;7.028;2023-01-13T05:38:20;19.40;99.90
18337;DHT22;9294;51.106;7.028;2023-01-13T05:40:47;19.40;99.90
18337;DHT22;9294;51.106;7.028;2023-01-13T05:43:33;19.50;99.90
18337;DHT22;9294;51.106;7.028;2023-01-13T05:46:01;19.40;99.90
18337;DHT22;9294;51.106;7.028;2023-01-13T05:48:29;19.40;99.90
18337;DHT22;9294;51.106;7.028;2023-01-13T05:50:57;19.40;99.90
18337;DHT22;9294;51.106;7.028;2023-01-13T05:53:23;19.50;99.90
18337;DHT22;9294;51.106;7.028;2023-01-13T05:55:50;19.50;99.90
18337;DHT22;9294;51.106;7.028;2023-01-13T05:58:19;19.50;99.90
18337;DHT22;9294;51.106;7.028;2023-01-13T06:00:47;19.50;99.90
18337;DHT22;9294;51.106;7.028;2023-01-13T06:03:14;19.50;99.90
18337;DHT22;9294;51.106;7.028;2023-01-13T06:05:41;19.50;99.90
18337;DHT22;9294;51.106;7.028;2023-01-13T06:08:08;19.50;99.90
18337;DHT22;9294;51.106;7.028;2023-01-13T06:10:35;19.50;99.90
18337;DHT22;9294;51.106;7.028;2023-01-13T06:13:02;19.50;99.90
18337;DHT22;9294;51.106;7.028;2023-01-13T06:15:29;19.50;99.90
18337;DHT22;9294;51.106;7.028;2023-01-13T06:18:00;19.50;99.90
18337;DHT22;9294;51.106;7.028;2023-01-13T06:20:27;19.50;99.90
18337;DHT22;9294;51.106;7.028;2023-01-13T06:22:53;19.50;99.90
18337;DHT22;9294;51.106;7.028;2023-01-13T06:25:27;19.60;99.90
18337;DHT22;9294;51.106;7.028;2023-01-13T06:27:55;19.60;99.90
18337;DHT22;9294;51.106;7.028;2023-01-13T06:30:23;19.50;99.90
18337;DHT22;9294;51.106;7.028;2023-01-13T06:32:52;19.50;99.90
18337;DHT22;9294;51.106;7.028;2023-01-13T06:35:23;19.50;99.90
18337;DHT22;9294;51.106;7.028;2023-01-13T06:37:52;19.50;99.90
18337;DHT22;9294;51.106;7.028;2023-01-13T06:40:19;19.50;99.90
18337;DHT22;9294;51.106;7.028;2023-01-13T06:42:46;19.50;99.90
18337;DHT22;9294;51.106;7.028;2023-01-13T06:45:31;19.50;99.90
18337;DHT22;9294;51.106;7.028;2023-01-13T06:47:58;19.50;99.90
18337;DHT22;9294;51.106;7.028;2023-01-13T06:50:27;19.50;99.90
18337;DHT22;9294;51.106;7.028;2023-01-13T06:52:55;19.50;99.90
18337;DHT22;9294;51.106;7.028;2023-01-13T06:55:23;19.50;99.90
18337;DHT22;9294;51.106;7.028;2023-01-13T06:57:51;19.50;99.90
18337;DHT22;9294;51.106;7.028;2023-01-13T07:00:19;19.40;99.90
18337;DHT22;9294;51.106;7.028;2023-01-13T07:02:46;19.40;99.90
18337;DHT22;9294;51.106;7.028;2023-01-13T07:05:14;19.40;99.90
18337;DHT22;9294;51.106;7.028;2023-01-13T07:07:43;19.50;99.90
18337;DHT22;9294;51.106;7.028;2023-01-13T07:10:12;19.50;99.90
18337;DHT22;9294;51.106;7.028;2023-01-13T07:12:46;19.50;99.90
18337;DHT22;9294;51.106;7.028;2023-01-13T07:15:31;19.50;99.90
18337;DHT22;9294;51.106;7.028;2023-01-13T07:17:58;19.50;99.90
18337;DHT22;9294;51.106;7.028;2023-01-13T07:20:25;19.60;99.90
18337;DHT22;9294;51.106;7.028;2023-01-13T07:22:54;19.50;99.90
18337;DHT22;9294;51.106;7.028;2023-01-13T07:25:21;19.50;99.90
18337;DHT22;9294;51.106;7.028;2023-01-13T07:27:48;19.60;99.90
18337;DHT22;9294;51.106;7.028;2023-01-13T07:30:15;19.50;99.90
18337;DHT22;9294;51.106;7.028;2023-01-13T07:32:42;19.60;99.90
18337;DHT22;9294;51.106;7.028;2023-01-13T07:35:09;19.60;99.90
18337;DHT22;9294;51.106;7.028;2023-01-13T07:37:36;19.60;99.90
18337;DHT22;9294;51.106;7.028;2023-01-13T07:40:06;19.50;99.90
18337;DHT22;9294;51.106;7.028;2023-01-13T07:42:33;19.50;99.90
18337;DHT22;9294;51.106;7.028;2023-01-13T07:45:20;19.50;99.90
18337;DHT22;9294;51.106;7.028;2023-01-13T07:47:50;19.50;99.90
18337;DHT22;9294;51.106;7.028;2023-01-13T07:50:17;19.50;99.90
18337;DHT22;9294;51.106;7.028;2023-01-13T07:52:44;19.50;99.90
18337;DHT22;9294;51.106;7.028;2023-01-13T07:55:12;19.60;99.90
18337;DHT22;9294;51.106;7.028;2023-01-13T07:57:39;19.60;99.90
18337;DHT22;9294;51.106;7.028;2023-01-13T08:00:07;19.50;99.90
18337;DHT22;9294;51.106;7.028;2023-01-13T08:02:34;19.50;99.90
18337;DHT22;9294;51.106;7.028;2023-01-13T08:05:00;19.50;99.90
18337;DHT22;9294;51.106;7.028;2023-01-13T08:07:27;19.50;99.90
18337;DHT22;9294;51.106;7.028;2023-01-13T08:09:54;19.50;99.90
18337;DHT22;9294;51.106;7.028;2023-01-13T08:12:22;19.50;99.90
18337;DHT22;9294;51.106;7.028;2023-01-13T08:15:07;19.50;99.90
18337;DHT22;9294;51.106;7.028;2023-01-13T08:17:35;19.40;99.90
18337;DHT22;9294;51.106;7.028;2023-01-13T08:20:02;19.40;99.90
18337;DHT22;9294;51.106;7.028;2023-01-13T08:22:28;19.40;99.90
18337;DHT22;9294;51.106;7.028;2023-01-13T08:24:57;19.40;99.90
18337;DHT22;9294;51.106;7.028;2023-01-13T08:27:25;19.30;99.90
18337;DHT22;9294;51.106;7.028;2023-01-13T08:29:52;19.30;99.90
18337;DHT22;9294;51.106;7.028;2023-01-13T08:32:19;19.30;99.90
18337;DHT22;9294;51.106;7.028;2023-01-13T08:34:46;19.40;99.90
18337;DHT22;9294;51.106;7.028;2023-01-13T08:37:12;19.40;99.90
18337;DHT22;9294;51.106;7.028;2023-01-13T08:39:39;19.40;99.90
18337;DHT22;9294;51.106;7.028;2023-01-13T08:42:06;19.40;99.90
18337;DHT22;9294;51.106;7.028;2023-01-13T08:44:34;19.50;99.90
18337;DHT22;9294;51.106;7.028;2023-01-13T08:47:02;19.40;99.90
18337;DHT22;9294;51.106;7.028;2023-01-13T08:49:29;19.40;99.90
18337;DHT22;9294;51.106;7.028;2023-01-13T08:51:56;19.30;99.90
18337;DHT22;9294;51.106;7.028;2023-01-13T08:54:23;19.30;99.90
18337;DHT22;9294;51.106;7.028;2023-01-13T08:56:50;19.40;99.90
18337;DHT22;9294;51.106;7.028;2023-01-13T08:59:18;19.30;99.90
18337;DHT22;9294;51.106;7.028;2023-01-13T09:01:46;19.30;99.90
18337;DHT22;9294;51.106;7.028;2023-01-13T09:04:15;19.30;99.90
18337;DHT22;9294;51.106;7.028;2023-01-13T09:06:43;19.30;99.90
18337;DHT22;9294;51.106;7.028;2023-01-13T09:09:09;19.20;99.90
18337;DHT22;9294;51.106;7.028;2023-01-13T09:11:39;19.20;99.90
18337;DHT22;9294;51.106;7.028;2023-01-13T09:14:27;19.20;99.90
18337;DHT22;9294;51.106;7.028;2023-01-13T09:16:56;19.20;99.90
18337;DHT22;9294;51.106;7.028;2023-01-13T09:19:22;19.20;99.90
18337;DHT22;9294;51.106;7.028;2023-01-13T09:21:49;19.20;99.90
18337;DHT22;9294;51.106;7.028;2023-01-13T09:24:17;19.20;99.90
18337;DHT22;9294;51.106;7.028;2023-01-13T09:26:44;19.20;99.90
18337;DHT22;9294;51.106;7.028;2023-01-13T09:29:10;19.20;99.90
18337;DHT22;9294;51.106;7.028;2023-01-13T09:31:37;19.20;99.90
18337;DHT22;9294;51.106;7.028;2023-01-13T09:34:06;19.20;99.90
18337;DHT22;9294;51.106;7.028;2023-01-13T09:36:50;19.20;99.90
18337;DHT22;9294;51.106;7.028;2023-01-13T09:39:17;19.20;99.90
18337;DHT22;9294;51.106;7.028;2023-01-13T09:41:48;19.20;99.90
18337;DHT22;9294;51.106;7.028;2023-01-13T09:44:41;19.30;99.90
18337;DHT22;9294;51.106;7.028;2023-01-13T09:47:16;19.30;99.90
18337;DHT22;9294;51.106;7.028;2023-01-13T09:49:45;19.30;99.90
18337;DHT22;9294;51.106;7.028;2023-01-13T09:52:14;19.30;99.90
18337;DHT22;9294;51.106;7.028;2023-01-13T09:54:46;19.30;99.90
18337;DHT22;9294;51.106;7.028;2023-01-13T09:57:16;19.30;99.90
18337;DHT22;9294;51.106;7.028;2023-01-13T09:59:44;19.40;99.90
18337;DHT22;9294;51.106;7.028;2023-01-13T10:02:27;19.40;99.90
18337;DHT22;9294;51.106;7.028;2023-01-13T10:05:09;19.40;99.90
18337;DHT22;9294;51.106;7.028;2023-01-13T10:07:42;19.40;99.90
18337;DHT22;9294;51.106;7.028;2023-01-13T10:10:15;19.50;99.90
18337;DHT22;9294;51.106;7.028;2023-01-13T10:12:44;19.50;99.90
18337;DHT22;9294;51.106;7.028;2023-01-13T10:15:30;19.60;99.90
18337;DHT22;9294;51.106;7.028;2023-01-13T10:18:04;19.60;99.90
18337;DHT22;9294;51.106;7.028;2023-01-13T10:20:44;19.60;99.90
18337;DHT22;9294;51.106;7.028;2023-01-13T10:23:38;19.70;99.90
18337;DHT22;9294;51.106;7.028;2023-01-13T10:26:15;19.70;99.90
18337;DHT22;9294;51.106;7.028;2023-01-13T10:28:51;19.70;99.90
18337;DHT22;9294;51.106;7.028;2023-01-13T10:31:19;19.70;99.90
18337;DHT22;9294;51.106;7.028;2023-01-13T10:33:46;19.70;99.90
18337;DHT22;9294;51.106;7.028;2023-01-13T10:36:15;19.70;99.90
18337;DHT22;9294;51.106;7.028;2023-01-13T10:38:47;19.80;99.90
18337;DHT22;9294;51.106;7.028;2023-01-13T10:41:22;19.70;99.90
18337;DHT22;9294;51.106;7.028;2023-01-13T10:44:02;19.70;99.90
18337;DHT22;9294;51.106;7.028;2023-01-13T10:46:31;19.70;99.90
18337;DHT22;9294;51.106;7.028;2023-01-13T10:48:59;19.60;99.90
18337;DHT22;9294;51.106;7.028;2023-01-13T10:51:29;19.60;99.90
18337;DHT22;9294;51.106;7.028;2023-01-13T10:53:59;19.60;99.90
18337;DHT22;9294;51.106;7.028;2023-01-13T10:56:29;19.60;99.90
18337;DHT22;9294;51.106;7.028;2023-01-13T10:59:13;19.60;99.90
18337;DHT22;9294;51.106;7.028;2023-01-13T11:01:41;19.70;99.90
18337;DHT22;9294;51.106;7.028;2023-01-13T11:04:26;19.70;99.90
18337;DHT22;9294;51.106;7.028;2023-01-13T11:06:55;19.80;99.90
18337;DHT22;9294;51.106;7.028;2023-01-13T11:09:24;19.80;99.90
18337;DHT22;9294;51.106;7.028;2023-01-13T11:11:52;19.80;99.90
18337;DHT22;9294;51.106;7.028;2023-01-13T11:14:24;19.80;99.90
18337;DHT22;9294;51.106;7.028;2023-01-13T11:17:04;19.80;99.90
18337;DHT22;9294;51.106;7.028;2023-01-13T11:19:37;19.80;99.90
18337;DHT22;9294;51.106;7.028;2023-01-13T11:22:10;19.80;99.90
18337;DHT22;9294;51.106;7.028;2023-01-13T11:24:41;19.80;99.90
18337;DHT22;9294;51.106;7.028;2023-01-13T11:27:13;19.70;99.90
18337;DHT22;9294;51.106;7.028;2023-01-13T11:29:50;19.80;99.90
18337;DHT22;9294;51.106;7.028;2023-01-13T11:32:21;19.80;99.90
18337;DHT22;9294;51.106;7.028;2023-01-13T11:34:50;19.70;99.90
18337;DHT22;9294;51.106;7.028;2023-01-13T11:37:22;19.70;99.90
18337;DHT22;9294;51.106;7.028;2023-01-13T11:39:54;19.70;99.90
18337;DHT22;9294;51.106;7.028;2023-01-13T11:42:25;19.70;99.90
18337;DHT22;9294;51.106;7.028;2023-01-13T11:45:00;19.70;99.90
18337;DHT22;9294;51.106;7.028;2023-01-13T11:47:29;19.70;99.90
18337;DHT22;9294;51.106;7.028;2023-01-13T11:49:57;19.70;99.90
18337;DHT22;9294;51.106;7.028;2023-01-13T11:52:31;19.70;99.90
18337;DHT22;9294;51.106;7.028;2023-01-13T11:55:22;19.70;99.90
18337;DHT22;9294;51.106;7.028;2023-01-13T11:58:07;19.70;99.90
18337;DHT22;9294;51.106;7.028;2023-01-13T12:03:29;19.60;99.90
18337;DHT22;9294;51.106;7.028;2023-01-13T12:06:05;19.60;99.90
18337;DHT22;9294;51.106;7.028;2023-01-13T12:08:53;19.60;99.90
18337;DHT22;9294;51.106;7.028;2023-01-13T12:11:26;19.60;99.90
18337;DHT22;9294;51.106;7.028;2023-01-13T12:14:13;19.60;99.90
18337;DHT22;9294;51.106;7.028;2023-01-13T12:16:46;19.60;99.90
18337;DHT22;9294;51.106;7.028;2023-01-13T12:19:22;19.50;99.90
18337;DHT22;9294;51.106;7.028;2023-01-13T12:21:58;19.50;99.90
18337;DHT22;9294;51.106;7.028;2023-01-13T12:24:30;19.50;99.90
18337;DHT22;9294;51.106;7.028;2023-01-13T12:27:02;19.50;99.90
18337;DHT22;9294;51.106;7.028;2023-01-13T12:29:34;19.50;99.90
18337;DHT22;9294;51.106;7.028;2023-01-13T12:32:04;19.50;99.90
18337;DHT22;9294;51.106;7.028;2023-01-13T12:34:43;19.50;99.90
18337;DHT22;9294;51.106;7.028;2023-01-13T12:37:19;19.50;99.90
18337;DHT22;9294;51.106;7.028;2023-01-13T12:39:58;19.40;99.90
18337;DHT22;9294;51.106;7.028;2023-01-13T12:42:32;19.50;99.90
18337;DHT22;9294;51.106;7.028;2023-01-13T12:45:27;19.50;99.90
18337;DHT22;9294;51.106;7.028;2023-01-13T12:47:56;19.40;99.90
18337;DHT22;9294;51.106;7.028;2023-01-13T12:50:37;19.30;99.90
18337;DHT22;9294;51.106;7.028;2023-01-13T12:53:27;19.40;99.90
18337;DHT22;9294;51.106;7.028;2023-01-13T12:56:27;19.30;99.90
18337;DHT22;9294;51.106;7.028;2023-01-13T13:02:24;19.30;99.90
18337;DHT22;9294;51.106;7.028;2023-01-13T13:04:52;19.40;99.90
18337;DHT22;9294;51.106;7.028;2023-01-13T13:07:29;19.30;99.90
18337;DHT22;9294;51.106;7.028;2023-01-13T13:10:00;19.30;99.90
18337;DHT22;9294;51.106;7.028;2023-01-13T13:12:52;19.30;99.90
18337;DHT22;9294;51.106;7.028;2023-01-13T13:15:47;19.30;99.90
18337;DHT22;9294;51.106;7.028;2023-01-13T13:18:27;19.30;99.90
18337;DHT22;9294;51.106;7.028;2023-01-13T13:21:04;19.30;99.90
18337;DHT22;9294;51.106;7.028;2023-01-13T13:23:37;19.30;99.90
18337;DHT22;9294;51.106;7.028;2023-01-13T13:26:26;19.40;99.90
18337;DHT22;9294;51.106;7.028;2023-01-13T13:29:08;19.40;99.90
18337;DHT22;9294;51.106;7.028;2023-01-13T13:31:54;19.30;99.90
18337;DHT22;9294;51.106;7.028;2023-01-13T13:34:28;19.40;99.90
18337;DHT22;9294;51.106;7.028;2023-01-13T13:37:16;19.40;99.90
18337;DHT22;9294;51.106;7.028;2023-01-13T13:39:45;19.40;99.90
18337;DHT22;9294;51.106;7.028;2023-01-13T13:42:37;19.30;99.90
18337;DHT22;9294;51.106;7.028;2023-01-13T13:45:26;19.30;99.90
18337;DHT22;9294;51.106;7.028;2023-01-13T13:48:24;19.30;99.90
18337;DHT22;9294;51.106;7.028;2023-01-13T13:50:52;19.40;99.90
18337;DHT22;9294;51.106;7.028;2023-01-13T13:53:26;19.40;99.90
18337;DHT22;9294;51.106;7.028;2023-01-13T13:55:54;19.40;99.90
18337;DHT22;9294;51.106;7.028;2023-01-13T13:58:22;19.40;99.90
18337;DHT22;9294;51.106;7.028;2023-01-13T14:00:53;19.40;99.90
18337;DHT22;9294;51.106;7.028;2023-01-13T14:03:24;19.50;99.90
18337;DHT22;9294;51.106;7.028;2023-01-13T14:05:54;19.50;99.90
18337;DHT22;9294;51.106;7.028;2023-01-13T14:08:22;19.60;99.90
18337;DHT22;9294;51.106;7.028;2023-01-13T14:10:49;19.60;99.90
18337;DHT22;9294;51.106;7.028;2023-01-13T14:13:19;19.60;99.90
18337;DHT22;9294;51.106;7.028;2023-01-13T14:15:47;19.70;99.90
18337;DHT22;9294;51.106;7.028;2023-01-13T14:18:17;19.70;99.90
18337;DHT22;9294;51.106;7.028;2023-01-13T14:20:51;19.70;99.90
18337;DHT22;9294;51.106;7.028;2023-01-13T14:23:22;19.70;99.90
18337;DHT22;9294;51.106;7.028;2023-01-13T14:25:51;19.70;99.90
18337;DHT22;9294;51.106;7.028;2023-01-13T14:28:21;19.70;99.90
18337;DHT22;9294;51.106;7.028;2023-01-13T14:30:50;19.70;99.90
18337;DHT22;9294;51.106;7.028;2023-01-13T14:33:22;19.70;99.90
18337;DHT22;9294;51.106;7.028;2023-01-13T14:36:10;19.80;99.90
18337;DHT22;9294;51.106;7.028;2023-01-13T14:38:37;19.80;99.90
18337;DHT22;9294;51.106;7.028;2023-01-13T14:41:19;19.80;99.90
18337;DHT22;9294;51.106;7.028;2023-01-13T14:43:48;19.80;99.90
18337;DHT22;9294;51.106;7.028;2023-01-13T14:46:16;19.80;99.90
18337;DHT22;9294;51.106;7.028;2023-01-13T14:48:47;19.80;99.90
18337;DHT22;9294;51.106;7.028;2023-01-13T14:51:21;19.80;99.90
18337;DHT22;9294;51.106;7.028;2023-01-13T14:53:49;19.80;99.90
18337;DHT22;9294;51.106;7.028;2023-01-13T14:56:35;19.80;99.90
18337;DHT22;9294;51.106;7.028;2023-01-13T14:59:33;19.80;99.90
18337;DHT22;9294;51.106;7.028;2023-01-13T15:02:00;19.80;99.90
18337;DHT22;9294;51.106;7.028;2023-01-13T15:04:33;19.80;99.90
18337;DHT22;9294;51.106;7.028;2023-01-13T15:07:03;19.80;99.90
18337;DHT22;9294;51.106;7.028;2023-01-13T15:09:36;19.80;99.90
18337;DHT22;9294;51.106;7.028;2023-01-13T15:12:16;19.80;99.90
18337;DHT22;9294;51.106;7.028;2023-01-13T15:14:48;19.80;99.90
18337;DHT22;9294;51.106;7.028;2023-01-13T15:17:16;19.80;99.90
18337;DHT22;9294;51.106;7.028;2023-01-13T15:19:45;19.80;99.90
18337;DHT22;9294;51.106;7.028;2023-01-13T15:22:11;19.80;99.90
18337;DHT22;9294;51.106;7.028;2023-01-13T15:24:38;19.80;99.90
18337;DHT22;9294;51.106;7.028;2023-01-13T15:27:17;19.70;99.90
18337;DHT22;9294;51.106;7.028;2023-01-13T15:29:44;19.70;99.90
18337;DHT22;9294;51.106;7.028;2023-01-13T15:32:16;19.60;99.90
18337;DHT22;9294;51.106;7.028;2023-01-13T15:34:45;19.50;99.90
18337;DHT22;9294;51.106;7.028;2023-01-13T15:37:12;19.50;99.90
18337;DHT22;9294;51.106;7.028;2023-01-13T15:39:39;19.50;99.90
18337;DHT22;9294;51.106;7.028;2023-01-13T15:42:09;19.50;99.90
18337;DHT22;9294;51.106;7.028;2023-01-13T15:44:54;19.50;99.90
18337;DHT22;9294;51.106;7.028;2023-01-13T15:47:37;19.50;99.90
18337;DHT22;9294;51.106;7.028;2023-01-13T15:50:11;19.50;99.90
18337;DHT22;9294;51.106;7.028;2023-01-13T15:52:38;19.50;99.90
18337;DHT22;9294;51.106;7.028;2023-01-13T15:55:05;19.60;99.90
18337;DHT22;9294;51.106;7.028;2023-01-13T15:57:34;19.50;99.90
18337;DHT22;9294;51.106;7.028;2023-01-13T16:00:04;19.50;99.90
18337;DHT22;9294;51.106;7.028;2023-01-13T16:02:32;19.60;99.90
18337;DHT22;9294;51.106;7.028;2023-01-13T16:04:59;19.60;99.90
18337;DHT22;9294;51.106;7.028;2023-01-13T16:07:27;19.60;99.90
18337;DHT22;9294;51.106;7.028;2023-01-13T16:09:55;19.70;99.90
18337;DHT22;9294;51.106;7.028;2023-01-13T16:12:21;19.60;99.90
18337;DHT22;9294;51.106;7.028;2023-01-13T16:14:48;19.70;99.90
18337;DHT22;9294;51.106;7.028;2023-01-13T16:17:17;19.70;99.90
18337;DHT22;9294;51.106;7.028;2023-01-13T16:19:45;19.70;99.90
18337;DHT22;9294;51.106;7.028;2023-01-13T16:22:12;19.70;99.90